Terminal Aerodrome Forecast
Issued by NWS

Home | Current Version | Previous Version | Text Only | Print | Product List | Glossary Off
Versions: 1 2 3 4 5 6 7 8 9 10 11 12 13 14 15 16 17 18

761
FTUS43 KMPX 241745
TAFRWF
TAF
KRWF 241745Z 2418/2518 15018G27KT P6SM FEW060 SCT180
     FM242300 15011KT 6SM -SHRA VCTS SCT025CB OVC040
      TEMPO 2500/2504 4SM TSRA BR
     FM250600 22009KT P6SM FEW050
     FM251600 27014G22KT P6SM BKN025=

USA.gov is the U.S. government's official web portal to all federal, state and local government web resources and services.